Terminal Aerodrome Forecast
Issued by NWS

Current Version | Previous Version | Graphics & Text | Print | Product List | Glossary On
Versions: 1 2 3 4 5 6 7 8 9 10 11 12 13 14 15 16 17 18 19 20 21 22 23 24 25 26 27 28 29 30 31 32 33
000
FTUS41 KILN 202300
TAFLUK
TAF
KLUK 202339Z 2100/2124 28013G22KT P6SM BKN040 OVC080
     FM210200 26010KT P6SM BKN080
     FM210800 23006KT P6SM SCT100
     FM211300 25016G28KT P6SM SCT090
     FM211500 26021G29KT P6SM FEW040 BKN090=

USA.gov is the U.S. government's official web portal to all federal, state and local government web resources and services.